Time;durP1;ratioP1;P1;durP2;ratioP2;P2;SDS_P1;SDS_P2;PMS_P1;PMS_P2;Temp;Humidity;BMP_temperature;BMP_pressure;BME280_temperature;BME280_humidity;BME280_pressure;Samples;Min_cycle;Max_cycle;Signal;HPM_P1;HPM_P2
2022/06/11 00:01:47;;;;;;;9.87;8.93;;;13.70;99.90;;;;;;4932738;29;20210;-80
2022/06/11 00:04:20;;;;;;;9.43;8.53;;;13.70;99.90;;;;;;4939366;29;20234;-80
2022/06/11 00:06:50;;;;;;;8.77;7.97;;;13.70;99.90;;;;;;4939114;29;20742;-80
2022/06/11 00:09:19;;;;;;;9.30;8.50;;;13.70;99.90;;;;;;4947955;29;20620;-79
2022/06/11 00:11:46;;;;;;;9.10;8.17;;;13.70;99.90;;;;;;4947699;29;20214;-80
2022/06/11 00:14:14;;;;;;;8.37;7.67;;;13.70;99.90;;;;;;4944217;29;20222;-80
2022/06/11 00:16:41;;;;;;;8.60;7.70;;;13.70;99.90;;;;;;4936270;29;20214;-80
2022/06/11 00:19:09;;;;;;;8.37;7.67;;;13.70;99.90;;;;;;4946456;29;20666;-80
2022/06/11 00:21:41;;;;;;;8.27;7.57;;;13.70;99.90;;;;;;4934618;29;20238;-80
2022/06/11 00:24:08;;;;;;;8.20;7.50;;;13.60;99.90;;;;;;4947196;29;20266;-80
2022/06/11 00:26:37;;;;;;;8.07;7.33;;;13.60;99.90;;;;;;4932940;29;20207;-80
2022/06/11 00:29:05;;;;;;;7.43;6.83;;;13.60;99.90;;;;;;4942070;29;20565;-80
2022/06/11 00:31:32;;;;;;;7.80;7.20;;;13.60;99.90;;;;;;4946322;29;20305;-79
2022/06/11 00:33:59;;;;;;;7.70;7.10;;;13.60;99.90;;;;;;4952775;29;20218;-80
2022/06/11 00:36:26;;;;;;;7.80;7.20;;;13.60;99.90;;;;;;4936078;29;20203;-79
2022/06/11 00:38:54;;;;;;;7.83;7.23;;;13.60;99.90;;;;;;4951210;29;20209;-80
2022/06/11 00:41:23;;;;;;;7.63;7.03;;;13.60;99.90;;;;;;4948311;29;20265;-80
2022/06/11 00:43:52;;;;;;;8.10;7.50;;;13.60;99.90;;;;;;4946106;28;20241;-80
2022/06/11 00:46:55;;;;;;;7.70;7.10;;;13.60;99.90;;;;;;4929961;29;20304;-80
2022/06/11 00:49:29;;;;;;;7.63;7.07;;;13.60;99.90;;;;;;4948008;29;20217;-80
2022/06/11 00:52:02;;;;;;;7.30;6.80;;;13.60;99.90;;;;;;4935411;29;20222;-80
2022/06/11 00:54:33;;;;;;;7.20;6.60;;;13.60;99.90;;;;;;4937698;29;20617;-80
2022/06/11 00:57:03;;;;;;;7.40;6.83;;;13.50;99.90;;;;;;4946268;29;20270;-79
2022/06/11 00:59:33;;;;;;;7.43;6.83;;;13.40;99.90;;;;;;4948135;29;20605;-80
2022/06/11 01:02:00;;;;;;;8.03;7.33;;;13.40;99.90;;;;;;4951373;29;20197;-80
2022/06/11 01:04:37;;;;;;;7.50;6.90;;;13.30;99.90;;;;;;4948304;28;20232;-79
2022/06/11 01:07:18;;;;;;;7.67;7.03;;;13.20;99.90;;;;;;4934622;29;20650;-80
2022/06/11 01:09:58;;;;;;;7.80;7.20;;;13.20;99.90;;;;;;4932772;29;20199;-79
2022/06/11 01:12:32;;;;;;;7.90;7.30;;;13.10;99.90;;;;;;4931930;29;20221;-80
2022/06/11 01:15:08;;;;;;;7.70;7.20;;;13.10;99.90;;;;;;4949440;29;20279;-80
2022/06/11 01:17:45;;;;;;;8.30;7.50;;;13.00;99.90;;;;;;4948625;28;20198;-80
2022/06/11 01:20:29;;;;;;;8.37;7.67;;;13.00;99.90;;;;;;4946549;29;20552;-79
2022/06/11 01:23:22;;;;;;;8.30;7.53;;;12.90;99.90;;;;;;4935158;29;20203;-80
2022/06/11 01:25:59;;;;;;;7.80;7.20;;;12.90;99.90;;;;;;4954712;29;20430;-80
2022/06/11 01:28:48;;;;;;;8.40;7.70;;;12.80;99.90;;;;;;4953418;29;20663;-80
2022/06/11 01:31:23;;;;;;;7.87;7.27;;;12.80;99.90;;;;;;4953159;29;20262;-80
2022/06/11 01:33:58;;;;;;;8.30;7.70;;;12.80;99.90;;;;;;4943960;29;20287;-79
2022/06/11 01:36:29;;;;;;;8.30;7.60;;;12.80;99.90;;;;;;4938409;29;20253;-79
2022/06/11 01:39:00;;;;;;;7.80;7.20;;;12.70;99.90;;;;;;4943133;29;20206;-80
2022/06/11 01:41:34;;;;;;;8.30;7.70;;;12.70;99.90;;;;;;4940391;29;20271;-80
2022/06/11 01:44:04;;;;;;;8.17;7.57;;;12.70;99.90;;;;;;4949515;29;20284;-81
2022/06/11 01:46:36;;;;;;;7.63;7.13;;;12.60;99.90;;;;;;4957838;29;20201;-80
2022/06/11 01:49:09;;;;;;;9.20;7.40;;;12.60;99.90;;;;;;4949663;29;20241;-82
2022/06/11 01:51:53;;;;;;;8.00;7.40;;;12.60;99.90;;;;;;4939762;29;20209;-79
2022/06/11 01:54:33;;;;;;;7.90;7.30;;;12.60;99.90;;;;;;4933140;29;20230;-79
2022/06/11 01:57:27;;;;;;;4.40;3.70;;;12.60;99.90;;;;;;4956989;29;20208;-79
2022/06/11 02:00:14;;;;;;;5.43;3.80;;;12.60;99.90;;;;;;4955154;29;20207;-79
2022/06/11 02:02:55;;;;;;;4.83;3.80;;;12.70;99.90;;;;;;4945380;29;20205;-78
2022/06/11 02:05:28;;;;;;;4.27;3.70;;;12.70;99.90;;;;;;4943170;29;20229;-79
2022/06/11 02:08:05;;;;;;;4.93;4.33;;;12.70;99.90;;;;;;4946353;29;20212;-79
2022/06/11 02:10:38;;;;;;;5.37;3.67;;;12.70;99.90;;;;;;4935015;29;20214;-79
2022/06/11 02:13:08;;;;;;;8.63;7.93;;;12.70;99.90;;;;;;4942291;29;20220;-80
2022/06/11 02:15:42;;;;;;;8.50;7.70;;;12.60;99.90;;;;;;4956995;28;20213;-81
2022/06/11 02:18:15;;;;;;;4.80;4.37;;;12.60;99.90;;;;;;4948404;29;20193;-80
2022/06/11 02:20:49;;;;;;;5.60;3.73;;;12.60;99.90;;;;;;4935065;29;20592;-79
2022/06/11 02:23:20;;;;;;;3.73;3.43;;;12.50;99.90;;;;;;4952081;29;20250;-79
2022/06/11 02:25:50;;;;;;;4.23;3.40;;;12.50;99.90;;;;;;4954831;29;20227;-80
2022/06/11 02:28:21;;;;;;;5.03;4.50;;;12.50;99.90;;;;;;4938487;29;20234;-80
2022/06/11 02:30:51;;;;;;;3.90;3.50;;;12.50;99.90;;;;;;4936260;29;20209;-79
2022/06/11 02:33:21;;;;;;;3.93;3.53;;;12.50;99.90;;;;;;4943658;29;20240;-79
2022/06/11 02:35:59;;;;;;;5.43;4.20;;;12.50;99.90;;;;;;4947782;29;20220;-80
2022/06/11 02:38:28;;;;;;;5.57;3.63;;;12.40;99.90;;;;;;4931565;29;20244;-80
2022/06/11 02:40:58;;;;;;;4.40;3.90;;;12.40;99.90;;;;;;4932188;29;20209;-79
2022/06/11 02:43:25;;;;;;;7.13;6.53;;;12.30;99.90;;;;;;4950384;29;20692;-79
2022/06/11 02:45:52;;;;;;;5.70;5.20;;;12.30;99.90;;;;;;4943349;29;20212;-77
2022/06/11 02:48:21;;;;;;;6.03;4.70;;;12.30;99.90;;;;;;4932984;29;20269;-79
2022/06/11 02:50:48;;;;;;;4.67;4.23;;;12.30;99.90;;;;;;4939339;29;20288;-80
2022/06/11 02:53:16;;;;;;;8.63;7.77;;;12.30;99.90;;;;;;4948603;29;20218;-80
2022/06/11 02:55:45;;;;;;;7.20;5.50;;;12.40;99.90;;;;;;4931867;29;20217;-81
2022/06/11 02:58:12;;;;;;;5.13;4.63;;;12.30;99.90;;;;;;4935424;28;20235;-80
2022/06/11 03:00:44;;;;;;;6.87;6.33;;;12.30;99.90;;;;;;4938617;29;20295;-77
2022/06/11 03:03:11;;;;;;;9.33;8.43;;;12.30;99.90;;;;;;4946427;28;20198;-83
2022/06/11 03:05:40;;;;;;;6.23;5.17;;;12.30;99.90;;;;;;4950664;28;20701;-81
2022/06/11 03:08:08;;;;;;;8.10;7.50;;;12.30;99.90;;;;;;4929355;29;20209;-80
2022/06/11 03:10:36;;;;;;;7.77;7.13;;;12.20;99.90;;;;;;4940564;29;20206;-78
2022/06/11 03:13:04;;;;;;;5.50;4.10;;;12.20;99.90;;;;;;4961749;28;20273;-78
2022/06/11 03:15:31;;;;;;;5.80;4.77;;;12.10;99.90;;;;;;4940750;29;20283;-77
2022/06/11 03:17:58;;;;;;;5.10;4.40;;;12.00;99.90;;;;;;4939292;29;20207;-78
2022/06/11 03:20:29;;;;;;;5.43;4.93;;;12.00;99.90;;;;;;4943615;29;20263;-78
2022/06/11 03:22:58;;;;;;;8.23;7.63;;;12.00;99.90;;;;;;4953567;29;20188;-77
2022/06/11 03:25:24;;;;;;;5.93;5.20;;;12.00;99.90;;;;;;4938863;29;20231;-77
2022/06/11 03:27:51;;;;;;;6.07;4.30;;;11.90;99.90;;;;;;4956037;29;20208;-79
2022/06/11 03:30:18;;;;;;;5.40;4.90;;;12.00;99.90;;;;;;4954341;29;20205;-79
2022/06/11 03:32:45;;;;;;;8.33;7.73;;;12.00;99.90;;;;;;4939517;29;20219;-80
2022/06/11 03:35:13;;;;;;;4.13;3.63;;;12.00;99.90;;;;;;4938067;29;20230;-78
2022/06/11 03:37:40;;;;;;;4.60;3.97;;;12.00;99.90;;;;;;4938650;29;20704;-78
2022/06/11 03:40:10;;;;;;;4.77;4.20;;;12.00;99.90;;;;;;4955005;28;20200;-77
2022/06/11 03:42:37;;;;;;;5.83;4.80;;;12.10;99.90;;;;;;4946738;28;20216;-78
2022/06/11 03:45:05;;;;;;;5.40;4.90;;;12.10;99.90;;;;;;4955860;28;20229;-78
2022/06/11 03:47:33;;;;;;;7.77;7.00;;;12.10;99.90;;;;;;4937482;29;20341;-80
2022/06/11 03:50:00;;;;;;;9.53;8.73;;;12.20;99.90;;;;;;4951996;29;20288;-79
2022/06/11 03:52:29;;;;;;;8.13;7.33;;;12.20;99.90;;;;;;4943071;29;20271;-79
2022/06/11 03:54:56;;;;;;;5.83;4.87;;;12.30;99.90;;;;;;4941692;28;20229;-79
2022/06/11 03:57:25;;;;;;;8.40;7.60;;;12.30;99.90;;;;;;4953058;29;20218;-79
2022/06/11 03:59:52;;;;;;;6.97;6.33;;;12.30;99.90;;;;;;4950967;29;20197;-79
2022/06/11 04:02:19;;;;;;;6.33;4.00;;;12.40;99.90;;;;;;4955003;29;20208;-79
2022/06/11 04:04:46;;;;;;;8.73;8.03;;;12.50;99.90;;;;;;4942767;29;20245;-79
2022/06/11 04:07:13;;;;;;;7.30;6.60;;;12.60;99.90;;;;;;4940575;29;20205;-77
2022/06/11 04:09:43;;;;;;;8.20;7.60;;;12.70;99.90;;;;;;4951662;29;20240;-78
2022/06/11 04:12:15;;;;;;;9.37;8.77;;;12.80;99.90;;;;;;4947192;29;20209;-80
2022/06/11 04:14:44;;;;;;;4.20;3.73;;;12.90;99.90;;;;;;4953228;28;20264;-79
2022/06/11 04:17:15;;;;;;;5.20;4.60;;;13.00;99.90;;;;;;4946627;29;20208;-79
2022/06/11 04:19:46;;;;;;;7.20;6.50;;;13.00;99.90;;;;;;4951442;29;20251;-79
2022/06/11 04:22:13;;;;;;;7.57;7.07;;;13.10;99.90;;;;;;4930801;29;20210;-79
2022/06/11 04:24:40;;;;;;;7.23;6.70;;;13.20;99.90;;;;;;4954025;29;20226;-79
2022/06/11 04:27:10;;;;;;;8.83;8.23;;;13.30;99.90;;;;;;4954316;29;20701;-78
2022/06/11 04:29:40;;;;;;;4.33;3.90;;;13.30;99.90;;;;;;4938680;29;20209;-79
2022/06/11 04:32:11;;;;;;;4.23;3.83;;;13.40;99.90;;;;;;4947615;29;20686;-79
2022/06/11 04:34:39;;;;;;;3.80;3.40;;;13.60;99.90;;;;;;4949984;28;20540;-78
2022/06/11 04:37:08;;;;;;;4.70;3.90;;;13.70;99.90;;;;;;4936962;29;20250;-79
2022/06/11 04:39:35;;;;;;;8.13;7.53;;;13.80;99.90;;;;;;4954466;29;20281;-79
2022/06/11 04:42:02;;;;;;;7.03;6.53;;;14.00;99.90;;;;;;4953822;29;20217;-79
2022/06/11 04:44:29;;;;;;;4.30;3.90;;;14.10;99.90;;;;;;4948003;29;20630;-79
2022/06/11 04:46:56;;;;;;;8.30;7.70;;;14.20;99.90;;;;;;4935620;29;20202;-79
2022/06/11 04:49:24;;;;;;;3.60;3.30;;;14.40;99.90;;;;;;4945516;29;20266;-79
2022/06/11 04:51:51;;;;;;;8.07;7.57;;;15.10;99.90;;;;;;4937326;29;20194;-79
2022/06/11 04:54:18;;;;;;;5.40;4.90;;;15.40;99.90;;;;;;4938271;29;20283;-79
2022/06/11 04:56:45;;;;;;;5.33;4.57;;;15.50;99.90;;;;;;4938955;29;20584;-79
2022/06/11 04:59:12;;;;;;;8.30;7.73;;;15.60;99.90;;;;;;4954737;29;20221;-78
2022/06/11 05:01:39;;;;;;;4.63;3.93;;;15.60;99.90;;;;;;4948319;29;20213;-79
2022/06/11 05:04:06;;;;;;;8.67;7.97;;;15.50;99.90;;;;;;4940971;29;20215;-79
2022/06/11 05:06:39;;;;;;;3.20;2.90;;;15.70;99.90;;;;;;4958150;29;20622;-79
2022/06/11 05:09:07;;;;;;;7.50;6.97;;;15.80;99.90;;;;;;4946127;29;20699;-79
2022/06/11 05:11:34;;;;;;;8.03;7.50;;;15.90;99.90;;;;;;4932887;29;20201;-79
2022/06/11 05:14:01;;;;;;;5.43;5.03;;;16.00;99.90;;;;;;4957366;28;20222;-79
2022/06/11 05:16:28;;;;;;;3.40;3.10;;;16.00;99.90;;;;;;4942476;29;20211;-79
2022/06/11 05:18:55;;;;;;;4.67;3.30;;;16.30;99.90;;;;;;4937110;29;20649;-79
2022/06/11 05:21:22;;;;;;;4.50;4.00;;;16.50;99.90;;;;;;4952684;28;20566;-80
2022/06/11 05:23:50;;;;;;;4.50;4.10;;;16.50;99.90;;;;;;4957969;28;20272;-78
2022/06/11 05:26:21;;;;;;;6.77;6.20;;;16.60;99.90;;;;;;4935314;29;20207;-77
2022/06/11 05:28:49;;;;;;;7.83;7.17;;;16.50;99.90;;;;;;4938386;28;20269;-78
2022/06/11 05:31:16;;;;;;;6.67;6.17;;;16.60;99.90;;;;;;4961088;28;20207;-79
2022/06/11 05:33:43;;;;;;;7.57;7.07;;;16.70;99.90;;;;;;4958521;28;20586;-79
2022/06/11 05:36:13;;;;;;;8.47;7.87;;;16.90;99.90;;;;;;4935374;29;20234;-79
2022/06/11 05:38:41;;;;;;;5.23;3.40;;;17.20;99.90;;;;;;4955201;29;20198;-79
2022/06/11 05:41:09;;;;;;;4.80;4.37;;;17.60;99.90;;;;;;4958060;29;20194;-79
2022/06/11 05:43:36;;;;;;;7.20;6.70;;;18.30;99.90;;;;;;4957942;28;20196;-78
2022/06/11 05:46:09;;;;;;;3.27;3.00;;;19.20;99.90;;;;;;4941189;29;20216;-78
2022/06/11 05:48:39;;;;;;;6.10;5.60;;;19.90;99.90;;;;;;4949985;29;20209;-78
2022/06/11 05:51:07;;;;;;;3.40;3.10;;;20.40;99.90;;;;;;4940888;29;20202;-78
2022/06/11 05:53:37;;;;;;;3.20;3.00;;;20.70;99.90;;;;;;4956306;29;20214;-79
2022/06/11 05:56:06;;;;;;;3.10;2.80;;;21.20;99.90;;;;;;4940113;29;20274;-79
2022/06/11 05:58:40;;;;;;;4.37;3.60;;;21.70;99.90;;;;;;4944539;29;20206;-79
2022/06/11 06:01:07;;;;;;;4.70;3.67;;;21.70;99.90;;;;;;4953898;29;20217;-79
2022/06/11 06:03:34;;;;;;;4.67;3.40;;;22.00;99.90;;;;;;4941189;28;20254;-79
2022/06/11 06:06:01;;;;;;;4.57;2.97;;;22.20;99.90;;;;;;4951087;29;20207;-78
2022/06/11 06:08:28;;;;;;;2.93;2.60;;;22.30;99.90;;;;;;4950001;28;20621;-78
2022/06/11 06:10:54;;;;;;;6.60;5.47;;;22.60;99.90;;;;;;4957134;28;20203;-81
2022/06/11 06:16:07;;;;;;;5.70;4.33;;;23.30;99.90;;;;;;4943358;29;20217;-80
2022/06/11 06:18:34;;;;;;;6.90;6.33;;;23.40;99.90;;;;;;4953324;28;20203;-79
2022/06/11 06:21:01;;;;;;;6.97;6.27;;;23.70;99.90;;;;;;4936340;29;20203;-79
2022/06/11 06:23:28;;;;;;;4.40;4.00;;;23.70;99.90;;;;;;4945310;29;20261;-80
2022/06/11 06:25:54;;;;;;;3.97;3.27;;;23.70;99.90;;;;;;4947212;29;20824;-80
2022/06/11 06:28:21;;;;;;;3.73;2.90;;;23.70;99.90;;;;;;4939466;29;20206;-80
2022/06/11 06:30:50;;;;;;;5.30;4.90;;;23.70;99.90;;;;;;4941912;29;20241;-80
2022/06/11 06:33:18;;;;;;;4.80;4.30;;;24.00;99.90;;;;;;4956986;29;20257;-83
2022/06/11 06:35:45;;;;;;;5.93;5.53;;;24.10;99.90;;;;;;4949574;29;20210;-78
2022/06/11 06:38:12;;;;;;;7.30;6.80;;;24.20;99.90;;;;;;4937038;29;20258;-79
2022/06/11 06:40:39;;;;;;;5.93;5.33;;;24.40;99.90;;;;;;4940053;29;20206;-79
2022/06/11 06:43:06;;;;;;;4.50;4.20;;;24.50;99.90;;;;;;4943563;28;20261;-78
2022/06/11 06:45:33;;;;;;;5.20;4.70;;;24.60;99.90;;;;;;4954798;28;20459;-78
2022/06/11 06:48:01;;;;;;;5.50;5.07;;;24.90;99.90;;;;;;4942199;29;20669;-79
2022/06/11 06:50:29;;;;;;;5.77;5.27;;;25.10;99.90;;;;;;4938929;29;20294;-77
2022/06/11 06:52:56;;;;;;;6.13;5.07;;;25.50;99.90;;;;;;4952719;29;20191;-76
2022/06/11 06:55:24;;;;;;;5.73;5.23;;;25.30;99.90;;;;;;4950527;29;20222;-77
2022/06/11 06:57:52;;;;;;;6.47;5.87;;;25.40;99.90;;;;;;4954809;29;20215;-75
2022/06/11 07:00:19;;;;;;;3.40;3.20;;;25.30;99.90;;;;;;4957396;29;20249;-75
2022/06/11 07:02:47;;;;;;;4.27;3.23;;;25.50;99.90;;;;;;4955149;29;20265;-77
2022/06/11 07:05:15;;;;;;;6.30;5.80;;;25.30;99.90;;;;;;4953473;28;20711;-76
2022/06/11 07:07:44;;;;;;;6.30;5.80;;;25.50;99.90;;;;;;4955094;28;20198;-77
2022/06/11 07:10:11;;;;;;;4.07;3.77;;;25.60;99.90;;;;;;4951210;28;20756;-78
2022/06/11 07:12:38;;;;;;;3.80;3.50;;;25.90;99.90;;;;;;4957153;29;20226;-78
2022/06/11 07:15:07;;;;;;;3.50;3.20;;;26.00;99.90;;;;;;4939856;29;20770;-77
2022/06/11 07:17:38;;;;;;;3.80;3.40;;;26.30;99.90;;;;;;4946135;29;20218;-78
2022/06/11 07:20:08;;;;;;;4.43;3.63;;;26.40;99.90;;;;;;4943658;29;20279;-78
2022/06/11 07:22:39;;;;;;;4.03;3.63;;;26.40;99.90;;;;;;4956908;29;20663;-79
2022/06/11 07:25:10;;;;;;;3.60;3.30;;;26.80;99.90;;;;;;4955676;29;20711;-78
2022/06/11 07:27:41;;;;;;;4.73;3.40;;;27.10;99.90;;;;;;4943867;29;20274;-77
2022/06/11 07:30:12;;;;;;;4.20;3.90;;;27.40;99.90;;;;;;4945031;29;20267;-78
2022/06/11 07:32:40;;;;;;;5.07;4.63;;;27.40;99.90;;;;;;4938586;29;20210;-76
2022/06/11 07:35:11;;;;;;;4.80;4.40;;;27.40;99.90;;;;;;4953913;28;20230;-77
2022/06/11 07:37:38;;;;;;;4.97;4.57;;;27.30;99.90;;;;;;4954653;29;20207;-76
2022/06/11 07:40:09;;;;;;;5.43;5.13;;;27.20;99.90;;;;;;4937980;29;20203;-77
2022/06/11 07:42:36;;;;;;;5.47;5.07;;;27.00;99.90;;;;;;4954572;29;20277;-77
2022/06/11 07:45:03;;;;;;;5.77;5.20;;;27.30;99.90;;;;;;4951619;28;20229;-76
2022/06/11 07:50:16;;;;;;;4.00;3.70;;;27.50;99.90;;;;;;4942418;29;20686;-76
2022/06/11 07:52:44;;;;;;;5.70;5.30;;;27.80;99.90;;;;;;4946133;29;20302;-77
2022/06/11 07:55:13;;;;;;;5.90;5.50;;;27.80;99.90;;;;;;4947846;29;20246;-77
2022/06/11 07:57:40;;;;;;;4.80;4.50;;;27.70;99.90;;;;;;4953469;29;20210;-78
2022/06/11 08:00:10;;;;;;;4.07;3.77;;;28.10;99.90;;;;;;4933421;29;20224;-77
2022/06/11 08:02:40;;;;;;;5.73;4.00;;;28.00;99.90;;;;;;4954134;29;20214;-77
2022/06/11 08:05:08;;;;;;;4.50;4.10;;;27.70;99.90;;;;;;4939152;29;20226;-78
2022/06/11 08:07:35;;;;;;;4.10;3.70;;;27.60;99.90;;;;;;4938826;29;20203;-77
2022/06/11 08:10:02;;;;;;;4.83;3.57;;;27.60;99.90;;;;;;4955485;29;20198;-77
2022/06/11 08:12:30;;;;;;;4.13;3.80;;;27.90;99.90;;;;;;4948154;29;20199;-78
2022/06/11 08:14:57;;;;;;;4.20;3.70;;;28.40;99.90;;;;;;4939010;29;20214;-78
2022/06/11 08:17:24;;;;;;;5.43;5.10;;;28.50;99.40;;;;;;4954595;29;20959;-78
2022/06/11 08:19:51;;;;;;;3.70;3.40;;;28.30;99.90;;;;;;4954303;29;20207;-80
2022/06/11 08:22:18;;;;;;;4.07;3.60;;;28.50;99.90;;;;;;4954825;29;20610;-79
2022/06/11 08:24:45;;;;;;;3.63;3.43;;;28.40;99.90;;;;;;4937601;29;20269;-79
2022/06/11 08:27:12;;;;;;;4.50;4.10;;;28.50;98.40;;;;;;4947608;28;20265;-77
2022/06/11 08:29:40;;;;;;;4.60;4.20;;;28.60;99.60;;;;;;4954971;29;20206;-79
2022/06/11 08:32:10;;;;;;;4.47;4.07;;;28.70;99.20;;;;;;4956234;29;20254;-79
2022/06/11 08:34:38;;;;;;;4.47;4.07;;;28.50;97.70;;;;;;4942338;29;20234;-79
2022/06/11 08:37:05;;;;;;;4.13;3.83;;;28.20;98.10;;;;;;4942195;29;20215;-80
2022/06/11 08:39:32;;;;;;;4.20;3.80;;;28.60;99.80;;;;;;4938118;29;20201;-79
2022/06/11 08:42:00;;;;;;;3.77;3.53;;;28.80;98.20;;;;;;4955960;29;20621;-79
2022/06/11 08:44:29;;;;;;;4.00;3.50;;;28.50;98.90;;;;;;4941324;28;20637;-79
2022/06/11 08:47:02;;;;;;;3.90;3.60;;;28.60;98.10;;;;;;4938963;29;20234;-79
2022/06/11 08:49:38;;;;;;;4.80;4.40;;;29.10;98.30;;;;;;4953636;29;20198;-78
2022/06/11 08:52:10;;;;;;;6.30;5.70;;;29.10;95.90;;;;;;4950144;28;20213;-79
2022/06/11 08:54:42;;;;;;;4.27;3.93;;;29.20;96.10;;;;;;4949422;28;20218;-79
2022/06/11 08:57:19;;;;;;;5.23;4.73;;;29.50;96.90;;;;;;4937455;29;20265;-79
2022/06/11 09:00:04;;;;;;;7.37;6.73;;;29.90;94.90;;;;;;4963886;28;20230;-79
2022/06/11 09:02:47;;;;;;;6.83;6.40;;;30.20;96.40;;;;;;4941561;29;20206;-79
2022/06/11 09:05:33;;;;;;;7.30;6.80;;;30.50;95.00;;;;;;4936039;29;20222;-80
2022/06/11 09:08:14;;;;;;;6.70;6.30;;;30.70;93.20;;;;;;4955628;29;20198;-80
2022/06/11 09:10:53;;;;;;;7.00;6.40;;;30.70;92.10;;;;;;4939536;29;20269;-79
2022/06/11 09:13:47;;;;;;;6.60;6.20;;;30.70;90.00;;;;;;4931536;29;20209;-80
2022/06/11 09:16:24;;;;;;;6.50;6.10;;;30.60;92.10;;;;;;4940160;29;20230;-78
2022/06/11 09:19:14;;;;;;;6.67;6.17;;;30.80;92.00;;;;;;4939645;29;20610;-80
2022/06/11 09:21:51;;;;;;;6.90;6.40;;;30.60;88.30;;;;;;4940503;29;20202;-77
2022/06/11 09:24:29;;;;;;;7.10;6.60;;;30.30;91.00;;;;;;4951072;28;20222;-76
2022/06/11 09:27:01;;;;;;;4.87;4.57;;;30.60;92.00;;;;;;4951643;29;20199;-77
2022/06/11 09:29:32;;;;;;;4.97;4.47;;;30.80;90.50;;;;;;4948675;29;20202;-77
2022/06/11 09:32:07;;;;;;;5.23;4.50;;;30.60;88.30;;;;;;4940831;29;20258;-77
2022/06/11 09:34:41;;;;;;;4.60;4.30;;;30.10;90.30;;;;;;4953598;28;20687;-77
2022/06/11 09:37:13;;;;;;;6.97;5.03;;;30.00;90.30;;;;;;4952966;28;20675;-77
2022/06/11 09:39:42;;;;;;;5.30;4.90;;;30.10;90.30;;;;;;4940303;29;20277;-77
2022/06/11 09:42:30;;;;;;;5.30;5.00;;;30.30;91.60;;;;;;4941772;29;20198;-77
2022/06/11 09:45:03;;;;;;;4.77;4.43;;;30.60;90.70;;;;;;4954883;29;20206;-77
2022/06/11 09:47:49;;;;;;;5.10;4.70;;;30.70;88.70;;;;;;4958171;29;20203;-77
2022/06/11 09:50:23;;;;;;;7.43;4.70;;;30.80;90.80;;;;;;4940235;29;20201;-77
2022/06/11 09:52:57;;;;;;;5.77;4.90;;;30.90;88.00;;;;;;4956240;29;20221;-77
2022/06/11 09:55:29;;;;;;;4.97;4.57;;;30.80;89.50;;;;;;4957802;28;20698;-77
2022/06/11 09:58:05;;;;;;;5.70;5.20;;;30.70;86.40;;;;;;4957146;29;20206;-77
2022/06/11 10:00:35;;;;;;;4.73;4.33;;;30.70;85.20;;;;;;4937702;29;20697;-77
2022/06/11 10:03:13;;;;;;;2.53;2.33;;;30.40;83.40;;;;;;4938556;29;20672;-77
2022/06/11 10:05:47;;;;;;;2.30;2.10;;;30.50;89.20;;;;;;4955052;28;20254;-78
2022/06/11 10:08:26;;;;;;;2.10;1.90;;;30.80;87.90;;;;;;4943415;28;20225;-78
2022/06/11 10:10:54;;;;;;;2.20;2.00;;;31.00;87.00;;;;;;4958065;28;20202;-79
2022/06/11 10:13:36;;;;;;;4.13;2.30;;;30.70;85.00;;;;;;4936115;29;20273;-77
2022/06/11 10:16:10;;;;;;;2.77;2.20;;;30.60;87.30;;;;;;4955430;29;20789;-76
2022/06/11 10:18:39;;;;;;;2.40;2.20;;;30.70;90.00;;;;;;4947941;29;20250;-77
2022/06/11 10:21:12;;;;;;;4.90;3.57;;;30.90;90.40;;;;;;4950583;29;20258;-78
2022/06/11 10:23:46;;;;;;;3.53;3.23;;;31.00;86.70;;;;;;4955806;28;20261;-76
2022/06/11 10:26:18;;;;;;;3.63;2.50;;;31.10;88.40;;;;;;4951890;29;20277;-77
2022/06/11 10:28:52;;;;;;;2.20;2.10;;;30.90;87.00;;;;;;4932465;29;20199;-77
2022/06/11 10:31:23;;;;;;;2.97;2.40;;;30.50;89.10;;;;;;4935496;29;20207;-77
2022/06/11 10:33:55;;;;;;;2.33;2.13;;;30.10;87.30;;;;;;4953489;28;20586;-77
2022/06/11 10:36:28;;;;;;;3.43;3.23;;;30.00;87.40;;;;;;4933365;28;20219;-77
2022/06/11 10:38:59;;;;;;;4.03;2.70;;;29.90;89.20;;;;;;4952109;28;20274;-77
2022/06/11 10:41:34;;;;;;;5.67;5.27;;;30.00;89.30;;;;;;4954243;28;20663;-78
2022/06/11 10:44:24;;;;;;;3.97;3.53;;;30.10;89.10;;;;;;4955229;28;20214;-78
2022/06/11 10:46:52;;;;;;;3.13;2.67;;;29.90;87.80;;;;;;4949844;28;20204;-75
2022/06/11 10:49:22;;;;;;;5.23;4.80;;;29.70;88.30;;;;;;4954896;28;20754;-77
2022/06/11 10:51:57;;;;;;;2.97;2.23;;;29.50;88.20;;;;;;4942151;29;20230;-78
2022/06/11 10:54:26;;;;;;;2.83;2.47;;;29.30;90.10;;;;;;4937143;29;20661;-77
2022/06/11 10:56:58;;;;;;;5.47;5.10;;;29.40;88.60;;;;;;4955355;29;20210;-77
2022/06/11 10:59:30;;;;;;;3.20;1.87;;;29.30;90.30;;;;;;4943768;29;20682;-77
2022/06/11 11:02:06;;;;;;;4.77;4.40;;;29.20;88.70;;;;;;4955218;29;20261;-77
2022/06/11 11:04:41;;;;;;;4.10;3.70;;;29.20;90.10;;;;;;4949698;28;20234;-77
2022/06/11 11:07:16;;;;;;;3.27;2.00;;;29.10;90.60;;;;;;4951889;28;20206;-77
2022/06/11 11:09:44;;;;;;;2.60;1.97;;;29.20;90.80;;;;;;4958022;28;20214;-77
2022/06/11 11:12:20;;;;;;;2.93;2.73;;;29.20;90.90;;;;;;4945966;28;20558;-78
2022/06/11 11:14:55;;;;;;;3.17;2.60;;;29.20;89.40;;;;;;4949917;28;20222;-77
2022/06/11 11:17:25;;;;;;;2.73;2.50;;;29.00;90.20;;;;;;4934966;29;20197;-79
2022/06/11 11:22:37;;;;;;;2.00;1.90;;;28.90;90.60;;;;;;4951358;28;20232;-76
2022/06/11 11:25:07;;;;;;;5.63;5.23;;;28.50;90.60;;;;;;4968566;28;20274;-77
2022/06/11 11:27:43;;;;;;;3.77;3.47;;;28.40;89.70;;;;;;4940947;29;20203;-78
2022/06/11 11:30:32;;;;;;;1.90;1.70;;;28.40;89.80;;;;;;4951297;29;20604;-79
2022/06/11 11:33:14;;;;;;;2.47;2.10;;;28.50;91.20;;;;;;4939890;29;20249;-78
2022/06/11 11:35:42;;;;;;;5.90;5.50;;;28.40;90.30;;;;;;4939451;29;20222;-79
2022/06/11 11:38:17;;;;;;;2.57;2.10;;;28.20;90.00;;;;;;4936887;29;20199;-78
2022/06/11 11:40:54;;;;;;;4.17;2.30;;;28.10;89.80;;;;;;4955512;28;20234;-80
2022/06/11 11:43:23;;;;;;;3.67;3.37;;;28.00;90.20;;;;;;4954441;29;20263;-78
2022/06/11 11:45:57;;;;;;;3.17;1.83;;;27.90;91.10;;;;;;4958009;29;20226;-80
2022/06/11 11:48:29;;;;;;;4.60;4.30;;;27.70;90.70;;;;;;4958401;29;20833;-79
2022/06/11 11:51:00;;;;;;;4.23;2.10;;;27.90;90.90;;;;;;4958227;29;20281;-78
2022/06/11 11:53:32;;;;;;;2.00;1.80;;;28.00;92.00;;;;;;4940120;29;20202;-80
2022/06/11 11:56:02;;;;;;;2.87;2.00;;;27.90;91.10;;;;;;4940164;29;20222;-80
2022/06/11 11:58:33;;;;;;;2.07;1.87;;;27.50;91.00;;;;;;4945430;29;20669;-79
2022/06/11 12:01:05;;;;;;;3.40;3.10;;;27.60;91.40;;;;;;4954138;28;20202;-78
2022/06/11 12:03:37;;;;;;;2.17;1.97;;;27.70;91.80;;;;;;4945974;29;20253;-80
2022/06/11 12:06:06;;;;;;;2.33;1.70;;;27.80;91.60;;;;;;4944071;29;20206;-79
2022/06/11 12:08:40;;;;;;;2.23;1.70;;;27.70;91.60;;;;;;4958368;29;20207;-79
2022/06/11 12:11:07;;;;;;;3.50;2.07;;;27.70;91.90;;;;;;4941868;29;20627;-79
2022/06/11 12:13:49;;;;;;;2.40;2.00;;;27.70;91.70;;;;;;4943591;28;20210;-78
2022/06/11 12:16:27;;;;;;;2.60;1.93;;;27.70;92.50;;;;;;4939974;29;20309;-78
2022/06/11 12:18:59;;;;;;;2.37;1.90;;;27.70;92.40;;;;;;4956437;29;20600;-78
2022/06/11 12:21:29;;;;;;;4.30;3.90;;;27.60;92.00;;;;;;4940474;29;20208;-78
2022/06/11 12:24:02;;;;;;;5.60;5.27;;;27.50;91.70;;;;;;4956794;29;20222;-77
2022/06/11 12:26:34;;;;;;;5.43;4.93;;;27.60;92.30;;;;;;4943911;29;20210;-78
2022/06/11 12:29:05;;;;;;;3.00;2.10;;;27.60;91.30;;;;;;4956593;29;20230;-78
2022/06/11 12:31:33;;;;;;;2.17;1.80;;;27.50;91.20;;;;;;4954102;29;20266;-79
2022/06/11 12:34:01;;;;;;;2.47;2.03;;;27.30;91.40;;;;;;4939563;29;20230;-78
2022/06/11 12:36:45;;;;;;;2.30;2.10;;;27.30;92.00;;;;;;4939798;29;20675;-79
2022/06/11 12:39:23;;;;;;;4.30;2.30;;;27.40;92.30;;;;;;4949844;29;20614;-80
2022/06/11 12:41:57;;;;;;;2.80;2.00;;;27.30;92.70;;;;;;4943272;29;20206;-79
2022/06/11 12:44:40;;;;;;;3.00;2.20;;;27.30;92.10;;;;;;4941821;28;20233;-78
2022/06/11 12:47:32;;;;;;;5.77;5.37;;;27.40;92.70;;;;;;4949193;29;20194;-80
2022/06/11 12:50:04;;;;;;;6.00;5.50;;;27.40;91.90;;;;;;4929680;29;20738;-79
2022/06/11 12:52:40;;;;;;;3.00;1.90;;;27.50;91.80;;;;;;4939055;29;20623;-79
2022/06/11 12:55:45;;;;;;;2.37;1.90;;;27.30;90.90;;;;;;4936665;29;20218;-79
2022/06/11 12:58:26;;;;;;;3.17;2.13;;;27.30;92.00;;;;;;4956444;29;20618;-80
2022/06/11 13:00:57;;;;;;;2.77;2.03;;;27.30;91.90;;;;;;4954478;29;20265;-79
2022/06/11 13:03:55;;;;;;;2.67;2.00;;;27.40;91.60;;;;;;4956960;29;20560;-80
2022/06/11 13:06:39;;;;;;;3.03;2.40;;;27.40;91.70;;;;;;4957499;29;20719;-79
2022/06/11 13:09:27;;;;;;;4.47;2.67;;;27.40;90.70;;;;;;4953820;29;20210;-78
2022/06/11 13:12:08;;;;;;;2.57;2.30;;;27.50;91.20;;;;;;4955295;28;20198;-79
2022/06/11 13:15:20;;;;;;;6.73;4.23;;;27.40;89.60;;;;;;4956906;29;20222;-79
2022/06/11 13:17:58;;;;;;;5.80;5.40;;;27.30;91.10;;;;;;4928047;29;20269;-79
2022/06/11 13:20:33;;;;;;;5.80;5.30;;;27.30;90.90;;;;;;4942395;29;20202;-78